Time;durP1;ratioP1;P1;durP2;ratioP2;P2;SDS_P1;SDS_P2;PMS_P1;PMS_P2;Temp;Humidity;BMP_temperature;BMP_pressure;BME280_temperature;BME280_humidity;BME280_pressure;Samples;Min_cycle;Max_cycle;Signal;HPM_P1;HPM_P2
2020/12/01 00:02:25;;;;;;;58.40;30.23;;;;;;;8.51;84.79;101538.94;5086228;28;20142;-66
2020/12/01 00:04:52;;;;;;;51.83;29.25;;;;;;;8.76;86.50;101530.63;5082900;28;20241;-67
2020/12/01 00:07:25;;;;;;;51.10;26.70;;;;;;;8.67;85.75;101524.06;5079407;28;20036;-68
2020/12/01 00:09:52;;;;;;;60.15;30.17;;;;;;;8.62;85.76;101523.25;5072034;28;20503;-68
2020/12/01 00:12:19;;;;;;;56.60;30.08;;;;;;;8.74;86.24;101524.59;5080509;28;20499;-67
2020/12/01 00:14:46;;;;;;;50.03;28.23;;;;;;;9.00;85.06;101517.84;5084197;28;20052;-68
2020/12/01 00:17:13;;;;;;;54.05;29.15;;;;;;;8.77;86.24;101521.28;5082572;28;20056;-68
2020/12/01 00:19:40;;;;;;;48.28;27.25;;;;;;;8.97;85.51;101525.84;5078173;28;20055;-68
2020/12/01 00:22:07;;;;;;;47.30;26.45;;;;;;;8.90;86.39;101512.44;5091124;28;20063;-69
2020/12/01 00:24:34;;;;;;;51.40;27.00;;;;;;;8.81;86.29;101514.13;5059035;28;20513;-69
2020/12/01 00:27:01;;;;;;;46.70;26.95;;;;;;;9.13;85.69;101511.72;5089991;28;20059;-69
2020/12/01 00:29:31;;;;;;;49.90;27.60;;;;;;;9.08;86.02;101514.50;5091307;28;20059;-70
2020/12/01 00:32:03;;;;;;;52.08;28.50;;;;;;;8.92;86.35;101510.22;5091456;28;20047;-70
2020/12/01 00:34:30;;;;;;;52.30;28.30;;;;;;;9.01;86.84;101503.00;5123318;27;20052;-70
2020/12/01 00:37:04;;;;;;;53.83;28.05;;;;;;;9.18;86.17;101497.13;5091685;28;20122;-68
2020/12/01 00:39:31;;;;;;;49.80;27.05;;;;;;;8.92;85.92;101491.00;5080019;28;20056;-66
2020/12/01 00:42:00;;;;;;;49.30;26.85;;;;;;;9.06;86.39;101489.25;5084496;28;20055;-70
2020/12/01 00:44:56;;;;;;;43.95;24.50;;;;;;;8.93;86.58;101491.78;5065780;28;20048;-70
2020/12/01 00:47:23;;;;;;;45.38;23.70;;;;;;;9.09;86.06;101490.59;5119939;27;20107;-68
2020/12/01 00:49:51;;;;;;;37.72;22.88;;;;;;;9.10;85.71;101487.56;5083410;28;20061;-70
2020/12/01 00:52:18;;;;;;;43.42;24.77;;;;;;;9.29;85.25;101481.41;5089348;28;20048;-68
2020/12/01 00:54:45;;;;;;;40.10;23.70;;;;;;;9.00;85.36;101482.13;5089711;28;20048;-68
2020/12/01 00:57:12;;;;;;;41.95;23.98;;;;;;;9.00;85.97;101470.31;5089880;28;20044;-68
2020/12/01 00:59:39;;;;;;;36.88;22.35;;;;;;;9.30;85.61;101477.53;5089466;28;20503;-68
2020/12/01 01:02:08;;;;;;;38.92;23.85;;;;;;;9.09;85.54;101482.34;5088961;28;20044;-67
2020/12/01 01:04:35;;;;;;;45.40;25.25;;;;;;;9.15;85.39;101481.22;5089519;28;20044;-68
2020/12/01 01:07:02;;;;;;;46.00;24.67;;;;;;;9.16;85.29;101466.38;5090850;28;20040;-69
2020/12/01 01:09:29;;;;;;;42.83;24.65;;;;;;;9.02;86.02;101468.09;5084907;28;20047;-66
2020/12/01 01:11:57;;;;;;;45.35;24.60;;;;;;;9.33;85.64;101476.97;5088358;28;20045;-69
2020/12/01 01:14:24;;;;;;;46.17;24.88;;;;;;;9.12;86.03;101470.78;5089199;28;20075;-67
2020/12/01 01:16:51;;;;;;;46.67;24.15;;;;;;;9.09;86.44;101465.88;5088897;28;20048;-68
2020/12/01 01:19:18;;;;;;;42.00;23.50;;;;;;;9.29;85.80;101476.72;5087812;28;20048;-69
2020/12/01 01:21:47;;;;;;;46.35;24.00;;;;;;;9.24;85.94;101470.44;5080312;28;20044;-68
2020/12/01 01:24:16;;;;;;;42.80;23.58;;;;;;;9.25;85.91;101469.31;5090939;28;20372;-70
2020/12/01 01:26:48;;;;;;;;;;;;;;;9.10;86.52;101468.31;5091591;28;20052;-68
2020/12/01 01:29:18;;;;;;;40.55;22.77;;;;;;;9.16;86.99;101462.78;5091684;28;19920;-67
2020/12/01 01:31:46;;;;;;;43.53;22.60;;;;;;;9.33;85.99;101455.00;5090807;28;20060;-71
2020/12/01 01:34:13;;;;;;;40.75;22.42;;;;;;;9.56;85.54;101457.78;5090672;28;20044;-68
2020/12/01 01:36:41;;;;;;;37.63;21.45;;;;;;;9.44;84.96;101465.59;5080458;28;20484;-69
2020/12/01 01:39:14;;;;;;;42.83;23.00;;;;;;;9.73;84.09;101460.09;5092577;28;20052;-71
2020/12/01 01:41:42;;;;;;;36.70;21.40;;;;;;;9.46;84.22;101457.06;5126278;27;20044;-70
2020/12/01 01:44:25;;;;;;;37.50;21.98;;;;;;;9.32;85.40;101453.31;5118018;27;20052;-69
2020/12/01 01:47:18;;;;;;;37.13;21.35;;;;;;;9.36;85.31;101446.16;5093106;28;20047;-66
2020/12/01 01:49:48;;;;;;;40.83;22.15;;;;;;;9.42;85.69;101440.31;5086346;28;20500;-67
2020/12/01 01:52:28;;;;;;;41.85;21.63;;;;;;;9.40;85.40;101441.69;5086157;28;20041;-67
2020/12/01 01:55:02;;;;;;;41.17;21.63;;;;;;;9.42;85.82;101434.81;5075938;28;20056;-67
2020/12/01 01:57:30;;;;;;;37.25;21.90;;;;;;;9.38;85.51;101433.75;5076365;28;20048;-66
2020/12/01 01:59:58;;;;;;;33.97;19.17;;;;;;;9.83;84.19;101438.00;5078483;28;20415;-69
2020/12/01 02:02:37;;;;;;;37.85;20.17;;;;;;;9.69;83.85;101442.56;5058316;28;20047;-69
2020/12/01 02:05:06;;;;;;;33.73;20.17;;;;;;;9.60;84.64;101436.03;5073888;28;20052;-67
2020/12/01 02:07:36;;;;;;;36.40;21.25;;;;;;;9.52;84.82;101433.91;5080358;28;20114;-69
2020/12/01 02:10:03;;;;;;;32.35;19.00;;;;;;;9.51;85.14;101438.59;5081045;28;20399;-68
2020/12/01 02:12:30;;;;;;;31.02;18.88;;;;;;;9.50;85.28;101441.63;5085454;28;20040;-66
2020/12/01 02:15:01;;;;;;;32.42;18.35;;;;;;;9.44;85.89;101440.03;5100674;28;20040;-67
2020/12/01 02:17:34;;;;;;;32.92;18.65;;;;;;;9.37;86.69;101448.63;5093080;28;20048;-68
2020/12/01 02:20:12;;;;;;;32.55;16.42;;;;;;;9.41;87.10;101457.09;5100197;28;20059;-70
2020/12/01 02:22:41;;;;;;;22.27;11.57;;;;;;;9.34;86.69;101468.44;5076511;28;20049;-68
2020/12/01 02:25:09;;;;;;;23.70;11.50;;;;;;;9.18;88.43;101466.91;5080768;28;20060;-68
2020/12/01 02:27:36;;;;;;;25.80;12.18;;;;;;;9.12;89.27;101459.00;5074014;28;20052;-69
2020/12/01 02:30:03;;;;;;;21.48;10.75;;;;;;;9.12;88.99;101462.53;5079238;28;20425;-69
2020/12/01 02:32:38;;;;;;;20.35;10.15;;;;;;;9.03;89.09;101469.78;5080697;28;20053;-67
2020/12/01 02:35:10;;;;;;;25.30;10.85;;;;;;;9.11;89.28;101466.41;5063441;28;20056;-68
2020/12/01 02:37:42;;;;;;;22.10;10.40;;;;;;;9.08;89.38;101469.72;5080089;28;20047;-67
2020/12/01 02:40:18;;;;;;;17.63;8.65;;;;;;;8.99;87.77;101457.69;5071061;28;20048;-68
2020/12/01 02:42:57;;;;;;;26.00;9.57;;;;;;;9.07;87.77;101457.91;5083738;28;20051;-66
2020/12/01 02:45:26;;;;;;;17.25;7.55;;;;;;;9.01;87.95;101475.53;5080831;28;20052;-67
2020/12/01 02:47:52;;;;;;;17.60;6.63;;;;;;;9.01;85.22;101474.72;5082015;28;20522;-67
2020/12/01 02:50:23;;;;;;;13.27;6.32;;;;;;;9.03;85.05;101473.31;5081037;28;20055;-66
2020/12/01 02:53:05;;;;;;;15.32;5.53;;;;;;;9.13;84.15;101479.84;5080381;28;20052;-67
2020/12/01 02:55:32;;;;;;;13.35;4.93;;;;;;;9.07;81.80;101481.81;5073582;28;20060;-67
2020/12/01 02:58:04;;;;;;;13.95;5.07;;;;;;;9.03;82.22;101481.56;5081101;28;20052;-67
2020/12/01 03:00:31;;;;;;;18.05;4.38;;;;;;;9.02;80.59;101477.19;5081042;28;20056;-68
2020/12/01 03:02:58;;;;;;;10.70;4.10;;;;;;;8.88;79.75;101470.66;5080772;28;20049;-67
2020/12/01 03:05:25;;;;;;;13.73;3.60;;;;;;;9.01;79.61;101480.22;5077537;28;20411;-68
2020/12/01 03:07:52;;;;;;;12.10;3.60;;;;;;;8.84;79.98;101474.25;5079576;28;20043;-68
2020/12/01 03:10:19;;;;;;;10.38;3.22;;;;;;;8.85;80.36;101479.50;5075897;28;20059;-67
2020/12/01 03:12:46;;;;;;;12.63;2.88;;;;;;;8.89;77.60;101527.25;5059651;28;20055;-67
2020/12/01 03:15:14;;;;;;;10.88;2.88;;;;;;;8.65;76.23;101507.03;5074267;28;20036;-68
2020/12/01 03:17:41;;;;;;;9.73;2.97;;;;;;;8.55;76.29;101503.53;5077761;28;20043;-68
2020/12/01 03:20:09;;;;;;;14.52;3.13;;;;;;;8.57;75.21;101506.81;5086275;28;20044;-67
2020/12/01 03:22:35;;;;;;;13.02;3.33;;;;;;;8.50;74.96;101525.50;5079376;28;20052;-66
2020/12/01 03:25:02;;;;;;;9.80;2.90;;;;;;;8.40;74.45;101517.31;5062971;28;20056;-67
2020/12/01 03:27:29;;;;;;;10.45;3.00;;;;;;;8.46;74.24;101507.94;5077578;28;20049;-68
2020/12/01 03:29:56;;;;;;;10.23;2.53;;;;;;;8.33;74.31;101527.75;5080135;28;20047;-67
2020/12/01 03:32:24;;;;;;;9.35;2.20;;;;;;;8.13;73.85;101512.13;5076151;28;20060;-67
2020/12/01 03:34:51;;;;;;;20.30;3.05;;;;;;;8.24;73.67;101504.72;5077296;28;20103;-70
2020/12/01 03:37:19;;;;;;;7.93;2.65;;;;;;;8.18;73.75;101509.38;5074732;28;20047;-70
2020/12/01 03:39:48;;;;;;;12.55;3.25;;;;;;;8.20;74.28;101498.94;5074014;28;20049;-68
2020/12/01 03:42:15;;;;;;;9.85;2.67;;;;;;;8.40;73.79;101501.66;5067157;28;20037;-69
2020/12/01 03:44:42;;;;;;;9.60;3.00;;;;;;;8.08;74.06;101506.66;5078954;28;20059;-69
2020/12/01 03:47:12;;;;;;;10.45;3.00;;;;;;;7.96;74.74;101501.47;5083640;28;20375;-72
2020/12/01 03:49:39;;;;;;;10.27;3.28;;;;;;;7.95;75.02;101516.28;5078791;28;20045;-73
2020/12/01 03:52:06;;;;;;;12.85;3.05;;;;;;;7.76;75.73;101506.13;5081729;28;20047;-66
2020/12/01 03:54:33;;;;;;;17.27;2.83;;;;;;;7.76;75.69;101525.34;5076605;28;20056;-66
2020/12/01 03:57:00;;;;;;;26.50;3.10;;;;;;;7.92;75.53;101519.56;5078795;28;20048;-67
2020/12/01 03:59:27;;;;;;;7.30;2.95;;;;;;;7.88;75.16;101523.13;5074687;28;20052;-67
2020/12/01 04:01:54;;;;;;;12.73;3.25;;;;;;;7.93;75.37;101523.16;5079168;28;20044;-67
2020/12/01 04:04:21;;;;;;;15.23;3.70;;;;;;;7.81;75.76;101528.09;5079037;28;20055;-67
2020/12/01 04:06:48;;;;;;;13.77;3.05;;;;;;;7.86;75.47;101530.84;5077373;28;20048;-67
2020/12/01 04:09:15;;;;;;;11.32;3.08;;;;;;;7.81;75.84;101534.38;5078641;28;20055;-66
2020/12/01 04:11:42;;;;;;;15.02;2.67;;;;;;;7.78;75.48;101534.94;5074389;28;20052;-67
2020/12/01 04:14:11;;;;;;;11.30;2.50;;;;;;;7.82;75.26;101533.31;5073506;28;20052;-67
2020/12/01 04:16:41;;;;;;;9.73;2.45;;;;;;;7.74;75.54;101546.75;5073019;28;20056;-66
2020/12/01 04:19:09;;;;;;;12.43;2.65;;;;;;;7.79;75.66;101536.59;5073323;28;20522;-66
2020/12/01 04:21:36;;;;;;;11.45;3.10;;;;;;;7.73;76.05;101536.88;5078705;28;20044;-67
2020/12/01 04:24:03;;;;;;;10.98;2.80;;;;;;;7.65;76.03;101549.19;5076852;28;20056;-67
2020/12/01 04:26:29;;;;;;;15.02;3.15;;;;;;;7.64;76.19;101549.47;5082212;28;20044;-68
2020/12/01 04:29:09;;;;;;;14.82;3.28;;;;;;;7.49;75.89;101546.72;5077005;28;20052;-67
2020/12/01 04:31:35;;;;;;;14.45;2.95;;;;;;;7.44;75.96;101543.97;5081008;28;20058;-67
2020/12/01 04:34:02;;;;;;;11.20;2.45;;;;;;;7.49;75.67;101554.94;5089485;28;20040;-67
2020/12/01 04:36:29;;;;;;;13.60;2.60;;;;;;;7.63;75.22;101545.09;5079757;28;20059;-67
2020/12/01 04:38:56;;;;;;;12.57;2.28;;;;;;;7.57;75.35;101548.91;5073985;28;20060;-67
2020/12/01 04:41:32;;;;;;;9.93;2.42;;;;;;;7.42;75.25;101557.13;5070584;28;20495;-64
2020/12/01 04:44:02;;;;;;;10.43;2.25;;;;;;;7.30;75.92;101560.16;5078687;28;20048;-67
2020/12/01 04:46:34;;;;;;;10.13;2.05;;;;;;;7.31;75.42;101544.50;5079386;28;20056;-68
2020/12/01 04:49:11;;;;;;;10.18;2.13;;;;;;;7.19;76.28;101549.41;5080394;28;20067;-68
2020/12/01 04:51:38;;;;;;;9.93;2.55;;;;;;;7.24;75.69;101554.91;5076545;28;20060;-68
2020/12/01 04:54:15;;;;;;;12.55;2.28;;;;;;;7.19;76.85;101561.19;5079471;28;20503;-68
2020/12/01 04:56:57;;;;;;;10.88;2.47;;;;;;;7.24;76.54;101566.69;5075747;28;20060;-68
2020/12/01 04:59:46;;;;;;;14.63;2.55;;;;;;;7.22;77.25;101566.13;5079835;28;20040;-68
2020/12/01 05:02:44;;;;;;;13.70;2.67;;;;;;;7.21;77.02;101572.72;5080128;28;20059;-68
2020/12/01 05:08:46;;;;;;;11.98;2.70;;;;;;;7.06;78.20;101575.41;5054175;28;20044;-67
2020/12/01 05:11:38;;;;;;;11.90;2.50;;;;;;;7.14;78.17;101576.81;5057140;28;20071;-68
2020/12/01 05:14:37;;;;;;;14.68;2.90;;;;;;;7.11;78.21;101564.47;5051355;28;20157;-68
2020/12/01 05:17:26;;;;;;;16.55;2.65;;;;;;;6.95;77.94;101576.47;5013192;28;20073;-66
2020/12/01 05:19:53;;;;;;;11.15;2.60;;;;;;;6.90;76.47;101578.38;5012877;28;20492;-69
2020/12/01 05:22:20;;;;;;;14.05;2.20;;;;;;;6.79;76.81;101574.75;5013639;28;20409;-68
2020/12/01 05:24:50;;;;;;;17.02;3.17;;;;;;;6.81;77.06;101581.63;4988290;28;20057;-68
2020/12/01 05:27:34;;;;;;;11.00;2.25;;;;;;;6.79;77.31;101581.06;4996911;28;20050;-66
2020/12/01 05:30:23;;;;;;;13.38;3.05;;;;;;;6.89;77.02;101574.81;4999594;28;20072;-68
2020/12/01 05:32:54;;;;;;;12.88;3.17;;;;;;;6.76;77.75;101583.53;5013086;28;20068;-67
2020/12/01 05:35:30;;;;;;;12.85;2.70;;;;;;;6.70;77.60;101590.06;5012509;28;20053;-66
2020/12/01 05:38:04;;;;;;;11.70;2.60;;;;;;;6.64;77.96;101583.72;5012095;28;20050;-68
2020/12/01 05:40:34;;;;;;;15.02;3.15;;;;;;;6.72;77.82;101576.91;5005805;28;20054;-66
2020/12/01 05:43:01;;;;;;;;;;;;;;;6.85;77.88;101579.19;5007221;28;20072;-67
2020/12/01 05:45:31;;;;;;;15.60;2.90;;;;;;;6.95;76.95;101589.34;4991955;28;19920;-65
2020/12/01 05:48:40;;;;;;;8.73;2.28;;;;;;;6.74;77.41;101593.91;5032570;28;20046;-66
2020/12/01 05:51:12;;;;;;;14.40;2.45;;;;;;;6.71;77.79;101594.44;4986576;28;20509;-67
2020/12/01 05:53:40;;;;;;;6.72;1.92;;;;;;;6.93;76.82;101591.50;4963432;28;20054;-69
2020/12/01 05:56:19;;;;;;;11.82;2.40;;;;;;;6.77;77.28;101590.63;5008182;28;20061;-67
2020/12/01 05:58:54;;;;;;;14.38;2.33;;;;;;;7.00;76.15;101592.09;5027737;28;20042;-67
2020/12/01 06:01:47;;;;;;;13.35;2.60;;;;;;;7.05;75.12;101609.38;4989628;28;20057;-68
2020/12/01 06:04:22;;;;;;;16.35;3.50;;;;;;;6.86;75.70;101597.25;5002609;28;20068;-67
2020/12/01 06:07:21;;;;;;;11.55;2.28;;;;;;;6.95;75.45;101606.59;5008529;28;20389;-68
2020/12/01 06:10:01;;;;;;;12.55;1.95;;;;;;;6.84;73.80;101588.47;4992936;28;20057;-66
2020/12/01 06:12:36;;;;;;;11.75;2.45;;;;;;;6.85;73.92;101599.16;4998281;28;20050;-67
2020/12/01 06:15:14;;;;;;;10.30;2.00;;;;;;;6.68;74.32;101592.22;5005493;28;20052;-67
2020/12/01 06:18:25;;;;;;;11.95;2.05;;;;;;;6.71;73.50;101597.19;4976550;28;20054;-67
2020/12/01 06:21:07;;;;;;;13.55;2.03;;;;;;;6.81;73.32;101608.19;4974539;28;20069;-67
2020/12/01 06:24:07;;;;;;;10.50;2.25;;;;;;;6.76;73.45;101603.50;4960048;28;20062;-68
2020/12/01 06:26:53;;;;;;;;;;;;;;;6.73;73.43;101608.66;4944543;28;20069;-67
2020/12/01 06:29:34;;;;;;;11.70;2.38;;;;;;;6.66;73.70;101597.97;5014106;28;19928;-67
2020/12/01 06:32:45;;;;;;;11.82;2.33;;;;;;;6.76;73.63;101599.94;5028819;28;20072;-68
2020/12/01 06:35:28;;;;;;;11.93;1.90;;;;;;;6.75;73.05;101601.84;5012980;28;20066;-66
2020/12/01 06:38:13;;;;;;;11.75;2.03;;;;;;;6.65;73.65;101587.28;5011008;28;20045;-66
2020/12/01 06:40:50;;;;;;;12.57;2.08;;;;;;;6.61;73.89;101610.81;4995626;28;20401;-66
2020/12/01 06:43:24;;;;;;;11.15;2.15;;;;;;;6.56;74.05;101608.03;5011408;28;20485;-67
2020/12/01 06:45:57;;;;;;;14.35;2.33;;;;;;;6.66;73.73;101599.88;4997041;28;20042;-66
2020/12/01 06:48:30;;;;;;;7.18;1.90;;;;;;;6.70;73.35;101628.38;5009568;28;20501;-64
2020/12/01 06:50:59;;;;;;;10.77;2.13;;;;;;;6.71;72.97;101619.88;5000829;28;20426;-65
2020/12/01 06:53:36;;;;;;;7.53;1.75;;;;;;;6.77;72.94;101612.53;5001166;28;20069;-67
2020/12/01 06:56:04;;;;;;;9.52;1.95;;;;;;;6.73;72.76;101614.97;5012601;28;20049;-67
2020/12/01 06:58:43;;;;;;;10.55;2.08;;;;;;;6.60;73.05;101614.63;5056034;28;20055;-69
2020/12/01 07:01:15;;;;;;;8.75;2.30;;;;;;;6.64;72.87;101621.25;5050699;28;20049;-66
2020/12/01 07:04:03;;;;;;;9.73;1.80;;;;;;;6.62;72.78;101627.00;5073667;28;20067;-67
2020/12/01 07:06:30;;;;;;;10.82;1.70;;;;;;;6.61;73.07;101621.75;5077494;28;20052;-66
2020/12/01 07:09:17;;;;;;;16.08;2.22;;;;;;;6.54;73.53;101624.72;5078636;28;20439;-65
2020/12/01 07:12:07;;;;;;;7.10;2.08;;;;;;;6.68;73.07;101627.81;5077911;28;20051;-67
2020/12/01 07:14:40;;;;;;;13.50;2.05;;;;;;;6.60;73.12;101642.00;5067361;28;20063;-69
2020/12/01 07:17:13;;;;;;;12.23;2.08;;;;;;;6.58;73.55;101634.06;5107721;27;20064;-68
2020/12/01 07:19:43;;;;;;;29.20;9.65;;;;;;;6.94;72.67;101643.28;5078836;28;20357;-68
2020/12/01 07:22:44;;;;;;;11.80;1.73;;;;;;;6.77;72.36;101643.47;5080190;28;20148;-68
2020/12/01 07:25:39;;;;;;;8.23;2.05;;;;;;;6.92;71.83;101663.81;5099229;28;20409;-69
2020/12/01 07:28:35;;;;;;;12.87;1.90;;;;;;;6.64;73.30;101654.91;5099964;28;20048;-69
2020/12/01 07:31:17;;;;;;;12.93;2.28;;;;;;;6.74;73.10;101645.94;5096235;28;20045;-65
2020/12/01 07:33:51;;;;;;;13.07;2.67;;;;;;;6.75;72.56;101653.88;5084740;28;20056;-70
2020/12/01 07:36:41;;;;;;;15.13;2.60;;;;;;;6.74;72.67;101654.16;5082614;28;20352;-69
2020/12/01 07:39:28;;;;;;;14.70;2.65;;;;;;;6.69;73.27;101657.66;5081867;28;20044;-69
2020/12/01 07:42:03;;;;;;;13.32;1.88;;;;;;;6.77;73.22;101650.88;5069774;28;20333;-70
2020/12/01 07:44:32;;;;;;;12.48;2.38;;;;;;;6.78;72.98;101656.06;5094682;28;20040;-69
2020/12/01 07:47:06;;;;;;;11.90;2.35;;;;;;;6.84;73.47;101657.75;5083324;28;20047;-71
2020/12/01 07:49:34;;;;;;;13.25;2.15;;;;;;;6.92;72.66;101666.56;5097037;28;20064;-71
2020/12/01 07:52:06;;;;;;;;;;;;;;;6.64;73.98;101652.16;5054207;28;20067;-68
2020/12/01 07:54:36;;;;;;;17.05;2.80;;;;;;;6.75;73.50;101655.78;5106314;27;19932;-71
2020/12/01 07:57:16;;;;;;;15.82;2.70;;;;;;;6.70;73.40;101645.63;5075417;28;20059;-69
2020/12/01 07:59:48;;;;;;;18.58;3.22;;;;;;;6.72;73.30;101659.88;5076573;28;20052;-70
2020/12/01 08:02:17;;;;;;;12.35;2.47;;;;;;;6.67;72.91;101651.66;5081262;28;20056;-71
2020/12/01 08:04:44;;;;;;;16.53;2.40;;;;;;;6.69;73.17;101654.13;5081898;28;20055;-70
2020/12/01 08:07:27;;;;;;;14.43;2.50;;;;;;;7.06;73.36;101657.56;5082209;28;20048;-68
2020/12/01 08:10:24;;;;;;;14.57;2.95;;;;;;;6.80;73.23;101661.28;5080444;28;20052;-70
2020/12/01 08:12:53;;;;;;;14.75;2.28;;;;;;;6.91;72.05;101664.91;5007011;28;20060;-70
2020/12/01 08:15:22;;;;;;;11.63;2.47;;;;;;;6.72;71.93;101683.69;4996954;28;20053;-70
2020/12/01 08:17:51;;;;;;;12.10;2.78;;;;;;;6.73;72.70;101657.94;5010076;28;20049;-69
2020/12/01 08:20:23;;;;;;;19.23;3.50;;;;;;;6.91;72.42;101673.94;5016936;28;20046;-72
2020/12/01 08:23:02;;;;;;;10.45;2.67;;;;;;;6.92;71.45;101661.09;5009995;28;20448;-70
2020/12/01 08:25:46;;;;;;;16.65;3.58;;;;;;;6.95;71.87;101650.41;4994115;28;20494;-69
2020/12/01 08:28:26;;;;;;;16.20;2.78;;;;;;;7.00;72.16;101646.88;5007831;28;20049;-72
2020/12/01 08:31:30;;;;;;;13.32;3.38;;;;;;;7.09;72.04;101646.09;4998925;28;20473;-68
2020/12/01 08:34:11;;;;;;;16.95;2.65;;;;;;;6.94;72.08;101642.47;5013903;28;20509;-70
2020/12/01 08:36:45;;;;;;;13.93;3.88;;;;;;;6.84;72.34;101643.25;5002250;28;20076;-70
2020/12/01 08:39:33;;;;;;;11.30;2.72;;;;;;;6.79;72.78;101644.03;5007957;28;20054;-69
2020/12/01 08:42:09;;;;;;;10.27;2.67;;;;;;;6.78;72.78;101650.59;4990966;28;20049;-69
2020/12/01 08:44:40;;;;;;;14.52;3.17;;;;;;;6.79;72.80;101646.78;5008066;28;20050;-70
2020/12/01 08:47:08;;;;;;;14.60;2.85;;;;;;;6.80;72.71;101648.41;4997746;28;20156;-69
2020/12/01 08:49:44;;;;;;;;;;;;;;;7.07;72.74;101640.06;5045200;28;20044;-70
2020/12/01 08:52:29;;;;;;;13.18;2.75;;;;;;;6.97;72.58;101633.72;5083726;28;19924;-68
2020/12/01 08:55:02;;;;;;;15.95;3.05;;;;;;;7.01;72.18;101629.38;5086038;28;20059;-68
2020/12/01 08:57:38;;;;;;;16.67;2.70;;;;;;;7.04;72.32;101635.13;5080946;28;20071;-67
2020/12/01 09:00:23;;;;;;;14.32;2.97;;;;;;;7.13;72.02;101629.97;5067218;28;20044;-68
2020/12/01 09:03:06;;;;;;;9.75;2.67;;;;;;;7.01;71.94;101624.69;5078418;28;20044;-68
2020/12/01 09:05:37;;;;;;;15.27;2.80;;;;;;;7.18;71.81;101640.94;5074484;28;20047;-67
2020/12/01 09:08:34;;;;;;;17.45;2.58;;;;;;;7.14;71.49;101650.78;5076378;28;20055;-67
2020/12/01 09:13:54;;;;;;;16.38;3.15;;;;;;;7.20;71.15;101641.50;5078051;28;20075;-68
2020/12/01 09:22:13;;;;;;;13.35;3.03;;;;;;;7.11;70.75;101645.84;5104662;28;20075;-68
2020/12/01 09:24:40;;;;;;;18.73;4.13;;;;;;;7.20;70.97;101649.72;5061153;28;20487;-67
2020/12/01 09:27:11;;;;;;;13.88;2.97;;;;;;;7.27;70.73;101650.28;5059290;28;20051;-68
2020/12/01 09:29:38;;;;;;;14.80;2.95;;;;;;;7.32;70.04;101644.81;5075934;28;20079;-69
2020/12/01 09:32:07;;;;;;;21.30;3.20;;;;;;;7.39;70.15;101645.38;5099725;28;20052;-69
2020/12/01 09:34:40;;;;;;;15.40;3.25;;;;;;;7.45;70.06;101652.50;5070821;28;20044;-68
2020/12/01 09:37:07;;;;;;;14.90;3.10;;;;;;;7.48;69.84;101654.75;5077111;28;20224;-68
2020/12/01 09:39:33;;;;;;;20.27;3.80;;;;;;;7.39;70.57;101648.94;5092537;28;20047;-67
2020/12/01 09:42:21;;;;;;;19.83;2.95;;;;;;;7.31;70.86;101656.84;5091242;28;20056;-69
2020/12/01 09:48:27;;;;;;;13.15;2.65;;;;;;;7.44;70.72;101657.19;5090768;28;20040;-68
2020/12/01 09:50:29;;;;;;;18.48;2.75;;;;;;;7.29;70.73;101670.00;5064535;28;20054;-70
2020/12/01 10:09:39;;;;;;;20.55;3.28;;;;;;;7.48;70.53;101680.22;5050528;28;20048;-70
2020/12/01 10:12:20;;;;;;;16.33;3.25;;;;;;;7.45;70.69;101678.00;5052739;28;20048;-71
2020/12/01 10:17:48;;;;;;;18.52;3.20;;;;;;;7.44;70.77;101673.66;5052842;28;20057;-69
2020/12/01 10:36:24;;;;;;;19.48;3.22;;;;;;;7.51;70.81;101674.22;5097312;27;20414;-68
2020/12/01 10:38:51;;;;;;;19.10;2.90;;;;;;;7.63;70.16;101673.97;5077429;27;20039;-68
2020/12/01 10:41:29;;;;;;;18.02;3.35;;;;;;;7.66;70.47;101667.91;5080162;28;20162;-69
2020/12/01 10:44:02;;;;;;;21.92;3.70;;;;;;;7.68;70.28;101663.00;5090741;27;20052;-68
2020/12/01 10:46:29;;;;;;;20.50;3.30;;;;;;;7.66;70.38;101674.25;5096298;27;20048;-70
2020/12/01 10:48:56;;;;;;;17.25;2.67;;;;;;;7.71;70.22;101665.19;5081012;27;20058;-72
2020/12/01 10:51:26;;;;;;;19.92;3.58;;;;;;;7.69;70.30;101662.72;5078268;28;20044;-70
2020/12/01 10:53:53;;;;;;;17.73;3.88;;;;;;;7.63;70.65;101668.47;5092801;27;20249;-70
2020/12/01 10:56:29;;;;;;;17.83;3.33;;;;;;;7.60;70.82;101663.53;5099132;27;20047;-69
2020/12/01 10:58:59;;;;;;;25.17;3.42;;;;;;;7.74;70.40;101657.25;5076911;28;20407;-70
2020/12/01 11:01:47;;;;;;;14.55;2.95;;;;;;;7.83;69.97;101654.78;5068163;27;20062;-68
2020/12/01 11:04:18;;;;;;;19.60;3.30;;;;;;;7.81;69.82;101646.03;5078497;27;20426;-68
2020/12/01 11:06:45;;;;;;;17.42;3.10;;;;;;;8.04;69.13;101652.91;5075229;28;20479;-69
2020/12/01 11:09:18;;;;;;;17.63;3.75;;;;;;;8.00;69.32;101639.72;5079054;27;20059;-68
2020/12/01 11:11:45;;;;;;;19.75;3.33;;;;;;;8.13;68.84;101643.84;5097930;27;20047;-69
2020/12/01 11:14:15;;;;;;;20.20;3.05;;;;;;;7.95;69.30;101647.13;5095641;27;20071;-68
2020/12/01 11:16:42;;;;;;;20.77;3.70;;;;;;;7.93;69.85;101638.34;5075540;28;20052;-69
2020/12/01 11:19:09;;;;;;;16.20;3.13;;;;;;;7.91;69.71;101648.78;5076956;28;20051;-67
2020/12/01 11:21:39;;;;;;;15.90;4.07;;;;;;;7.87;70.43;101636.69;5095089;27;20391;-71
2020/12/01 11:24:09;;;;;;;20.70;3.97;;;;;;;7.99;69.49;101629.84;5095576;27;20039;-69
2020/12/01 11:26:39;;;;;;;18.10;3.63;;;;;;;8.06;69.46;101631.47;5096963;27;20055;-67
2020/12/01 11:29:06;;;;;;;23.13;3.72;;;;;;;8.26;68.05;101621.38;5095634;27;20052;-70
2020/12/01 11:31:35;;;;;;;16.92;2.88;;;;;;;7.97;69.32;101643.00;5073156;27;20442;-68
2020/12/01 11:34:08;;;;;;;18.70;3.50;;;;;;;7.94;69.50;101653.72;5096285;27;20062;-71
2020/12/01 11:36:36;;;;;;;18.35;3.83;;;;;;;8.02;69.35;101658.63;5075877;27;20047;-69
2020/12/01 11:39:12;;;;;;;26.92;4.00;;;;;;;8.04;69.46;101644.69;5075509;27;20047;-69
2020/12/01 11:41:42;;;;;;;20.55;3.42;;;;;;;8.00;69.00;101642.47;5091310;27;20044;-69
2020/12/01 11:44:12;;;;;;;23.67;3.58;;;;;;;8.04;69.33;101622.72;5081024;28;20059;-67
2020/12/01 11:46:43;;;;;;;16.25;3.65;;;;;;;8.15;69.01;101644.38;5104062;28;20066;-69
2020/12/01 11:49:11;;;;;;;23.02;3.58;;;;;;;8.26;68.21;101651.56;5100818;28;20075;-68
2020/12/01 11:51:44;;;;;;;20.13;4.47;;;;;;;8.28;68.29;101654.84;5083633;28;20047;-71
2020/12/01 11:54:19;;;;;;;18.83;3.30;;;;;;;8.16;68.46;101650.72;5063680;27;20048;-70
2020/12/01 11:56:46;;;;;;;19.48;3.75;;;;;;;8.20;68.78;101646.28;5075903;27;20059;-68
2020/12/01 11:59:13;;;;;;;19.08;3.63;;;;;;;8.17;68.74;101647.69;5096855;27;20048;-66
2020/12/01 12:01:49;;;;;;;22.08;4.07;;;;;;;8.30;68.53;101641.66;5094776;27;20050;-68
2020/12/01 12:04:17;;;;;;;21.95;3.47;;;;;;;8.36;68.25;101623.28;5069426;28;20114;-69
2020/12/01 12:06:44;;;;;;;19.27;3.30;;;;;;;8.29;67.93;101634.53;5093351;27;20051;-66
2020/12/01 12:09:11;;;;;;;15.95;3.33;;;;;;;8.12;68.34;101633.97;5096137;27;20044;-68
2020/12/01 12:11:38;;;;;;;21.05;3.47;;;;;;;8.10;68.77;101640.81;5097176;27;20052;-69
2020/12/01 12:14:05;;;;;;;23.08;3.63;;;;;;;8.09;68.75;101634.50;5078403;28;20059;-69
2020/12/01 12:16:35;;;;;;;17.60;3.10;;;;;;;8.29;68.33;101622.72;5095596;27;20077;-69
2020/12/01 12:19:03;;;;;;;21.58;3.60;;;;;;;8.44;67.98;101628.22;5094745;27;20402;-72
2020/12/01 12:21:30;;;;;;;22.25;3.60;;;;;;;8.44;67.62;101631.75;5095244;27;20048;-69
2020/12/01 12:23:57;;;;;;;19.95;3.70;;;;;;;8.26;68.51;101617.81;5098033;27;20669;-68
2020/12/01 12:26:24;;;;;;;13.02;3.05;;;;;;;8.49;68.20;101623.50;5095745;28;20068;-66
2020/12/01 12:28:51;;;;;;;25.02;5.53;;;;;;;8.68;67.24;101616.31;5095596;27;20068;-66
2020/12/01 12:31:19;;;;;;;23.05;5.90;;;;;;;8.65;66.77;101611.41;5078774;28;20518;-67
2020/12/01 12:33:47;;;;;;;19.23;4.45;;;;;;;8.65;66.65;101611.41;5077469;27;20391;-70
2020/12/01 12:36:16;;;;;;;22.83;5.63;;;;;;;8.67;67.09;101603.72;5095755;27;20039;-70
2020/12/01 12:38:44;;;;;;;16.92;4.20;;;;;;;8.81;66.19;101621.25;5094536;28;20044;-67
2020/12/01 12:41:13;;;;;;;15.90;3.03;;;;;;;8.68;66.25;101607.28;5104057;28;20445;-75
2020/12/01 12:43:42;;;;;;;20.08;3.20;;;;;;;8.66;66.67;101612.22;5098879;28;20059;-70